sensor_id;sensor_type;location;lat;lon;timestamp;P1;durP1;ratioP1;P2;durP2;ratioP2
24485;SDS011;13449;49.374;8.584;2022-12-29T00:00:08;4.75;;;1.90;;
24485;SDS011;13449;49.374;8.584;2022-12-29T00:02:36;4.45;;;1.60;;
24485;SDS011;13449;49.374;8.584;2022-12-29T00:05:02;5.72;;;1.25;;
24485;SDS011;13449;49.374;8.584;2022-12-29T00:07:33;3.30;;;1.77;;
24485;SDS011;13449;49.374;8.584;2022-12-29T00:09:59;4.03;;;2.17;;
24485;SDS011;13449;49.374;8.584;2022-12-29T00:12:26;2.15;;;1.42;;
24485;SDS011;13449;49.374;8.584;2022-12-29T00:15:12;7.40;;;1.33;;
24485;SDS011;13449;49.374;8.584;2022-12-29T00:17:57;1.33;;;1.10;;
24485;SDS011;13449;49.374;8.584;2022-12-29T00:20:23;1.17;;;1.08;;
24485;SDS011;13449;49.374;8.584;2022-12-29T00:23:08;1.98;;;1.00;;
24485;SDS011;13449;49.374;8.584;2022-12-29T00:25:54;2.88;;;1.63;;
24485;SDS011;13449;49.374;8.584;2022-12-29T00:28:39;3.25;;;1.67;;
24485;SDS011;13449;49.374;8.584;2022-12-29T00:31:24;3.38;;;1.20;;
24485;SDS011;13449;49.374;8.584;2022-12-29T00:34:10;6.72;;;0.88;;
24485;SDS011;13449;49.374;8.584;2022-12-29T00:36:56;3.10;;;1.30;;
24485;SDS011;13449;49.374;8.584;2022-12-29T00:39:23;4.20;;;1.55;;
24485;SDS011;13449;49.374;8.584;2022-12-29T00:42:10;2.33;;;0.98;;
24485;SDS011;13449;49.374;8.584;2022-12-29T00:45:06;4.65;;;1.35;;
24485;SDS011;13449;49.374;8.584;2022-12-29T00:47:33;1.98;;;1.17;;
24485;SDS011;13449;49.374;8.584;2022-12-29T00:49:59;2.42;;;1.20;;
24485;SDS011;13449;49.374;8.584;2022-12-29T00:52:30;2.63;;;1.20;;
24485;SDS011;13449;49.374;8.584;2022-12-29T00:54:59;3.78;;;1.98;;
24485;SDS011;13449;49.374;8.584;2022-12-29T00:57:28;1.35;;;0.98;;
24485;SDS011;13449;49.374;8.584;2022-12-29T00:59:59;0.98;;;0.90;;
24485;SDS011;13449;49.374;8.584;2022-12-29T01:02:26;2.95;;;1.30;;
24485;SDS011;13449;49.374;8.584;2022-12-29T01:04:55;1.58;;;1.05;;
24485;SDS011;13449;49.374;8.584;2022-12-29T01:07:21;5.35;;;1.70;;
24485;SDS011;13449;49.374;8.584;2022-12-29T01:09:48;2.45;;;1.10;;
24485;SDS011;13449;49.374;8.584;2022-12-29T01:12:33;0.88;;;0.85;;
24485;SDS011;13449;49.374;8.584;2022-12-29T01:15:11;8.25;;;1.10;;
24485;SDS011;13449;49.374;8.584;2022-12-29T01:17:40;2.38;;;0.85;;
24485;SDS011;13449;49.374;8.584;2022-12-29T01:20:07;6.13;;;1.13;;
24485;SDS011;13449;49.374;8.584;2022-12-29T01:22:34;2.58;;;0.90;;
24485;SDS011;13449;49.374;8.584;2022-12-29T01:25:00;1.95;;;1.10;;
24485;SDS011;13449;49.374;8.584;2022-12-29T01:27:30;1.65;;;1.00;;
24485;SDS011;13449;49.374;8.584;2022-12-29T01:29:58;5.22;;;1.23;;
24485;SDS011;13449;49.374;8.584;2022-12-29T01:32:25;6.78;;;1.90;;
24485;SDS011;13449;49.374;8.584;2022-12-29T01:34:51;1.08;;;0.90;;
24485;SDS011;13449;49.374;8.584;2022-12-29T01:37:17;2.38;;;0.60;;
24485;SDS011;13449;49.374;8.584;2022-12-29T01:39:44;5.32;;;0.73;;
24485;SDS011;13449;49.374;8.584;2022-12-29T01:42:16;6.22;;;0.65;;
24485;SDS011;13449;49.374;8.584;2022-12-29T01:44:50;6.03;;;1.15;;
24485;SDS011;13449;49.374;8.584;2022-12-29T01:52:45;2.03;;;0.70;;
24485;SDS011;13449;49.374;8.584;2022-12-29T01:55:20;1.65;;;0.70;;
24485;SDS011;13449;49.374;8.584;2022-12-29T01:57:50;1.10;;;0.68;;
24485;SDS011;13449;49.374;8.584;2022-12-29T02:00:21;1.75;;;0.60;;
24485;SDS011;13449;49.374;8.584;2022-12-29T02:02:50;3.22;;;1.05;;
24485;SDS011;13449;49.374;8.584;2022-12-29T02:05:20;6.22;;;0.70;;
24485;SDS011;13449;49.374;8.584;2022-12-29T02:07:47;2.00;;;0.70;;
24485;SDS011;13449;49.374;8.584;2022-12-29T02:10:19;2.65;;;0.40;;
24485;SDS011;13449;49.374;8.584;2022-12-29T02:12:48;0.73;;;0.70;;
24485;SDS011;13449;49.374;8.584;2022-12-29T02:15:14;3.65;;;0.57;;
24485;SDS011;13449;49.374;8.584;2022-12-29T02:26:51;2.20;;;0.57;;
24485;SDS011;13449;49.374;8.584;2022-12-29T02:35:41;3.13;;;0.88;;
24485;SDS011;13449;49.374;8.584;2022-12-29T02:38:45;1.33;;;0.80;;
24485;SDS011;13449;49.374;8.584;2022-12-29T02:44:26;3.47;;;0.57;;
24485;SDS011;13449;49.374;8.584;2022-12-29T02:47:05;8.00;;;0.80;;
24485;SDS011;13449;49.374;8.584;2022-12-29T02:49:46;7.18;;;0.80;;
24485;SDS011;13449;49.374;8.584;2022-12-29T02:52:22;2.85;;;0.82;;
24485;SDS011;13449;49.374;8.584;2022-12-29T02:54:56;2.40;;;0.75;;
24485;SDS011;13449;49.374;8.584;2022-12-29T02:57:38;0.80;;;0.63;;
24485;SDS011;13449;49.374;8.584;2022-12-29T03:00:08;0.98;;;0.60;;
24485;SDS011;13449;49.374;8.584;2022-12-29T03:02:54;1.15;;;0.60;;
24485;SDS011;13449;49.374;8.584;2022-12-29T03:05:54;4.07;;;0.70;;
24485;SDS011;13449;49.374;8.584;2022-12-29T03:11:08;1.85;;;0.63;;
24485;SDS011;13449;49.374;8.584;2022-12-29T03:17:29;1.52;;;0.65;;
24485;SDS011;13449;49.374;8.584;2022-12-29T03:20:06;0.77;;;0.50;;
24485;SDS011;13449;49.374;8.584;2022-12-29T03:22:36;2.20;;;0.90;;
24485;SDS011;13449;49.374;8.584;2022-12-29T03:25:22;1.10;;;0.57;;
24485;SDS011;13449;49.374;8.584;2022-12-29T03:28:06;2.15;;;0.70;;
24485;SDS011;13449;49.374;8.584;2022-12-29T03:31:03;1.38;;;0.50;;
24485;SDS011;13449;49.374;8.584;2022-12-29T03:33:31;1.00;;;0.65;;
24485;SDS011;13449;49.374;8.584;2022-12-29T03:35:59;1.65;;;0.75;;
24485;SDS011;13449;49.374;8.584;2022-12-29T03:38:50;1.20;;;0.52;;
24485;SDS011;13449;49.374;8.584;2022-12-29T03:41:25;1.88;;;0.60;;
24485;SDS011;13449;49.374;8.584;2022-12-29T03:43:55;2.50;;;0.70;;
24485;SDS011;13449;49.374;8.584;2022-12-29T03:46:22;0.90;;;0.52;;
24485;SDS011;13449;49.374;8.584;2022-12-29T03:48:48;2.15;;;0.60;;
24485;SDS011;13449;49.374;8.584;2022-12-29T03:51:15;2.83;;;0.65;;
24485;SDS011;13449;49.374;8.584;2022-12-29T03:53:44;1.05;;;0.68;;
24485;SDS011;13449;49.374;8.584;2022-12-29T03:56:15;2.15;;;0.68;;
24485;SDS011;13449;49.374;8.584;2022-12-29T03:58:43;2.45;;;0.68;;
24485;SDS011;13449;49.374;8.584;2022-12-29T04:01:09;3.80;;;0.70;;
24485;SDS011;13449;49.374;8.584;2022-12-29T04:03:36;1.75;;;0.73;;
24485;SDS011;13449;49.374;8.584;2022-12-29T04:06:03;0.95;;;0.77;;
24485;SDS011;13449;49.374;8.584;2022-12-29T04:08:30;3.15;;;0.70;;
24485;SDS011;13449;49.374;8.584;2022-12-29T04:10:59;3.20;;;0.50;;
24485;SDS011;13449;49.374;8.584;2022-12-29T04:13:25;1.02;;;0.45;;
24485;SDS011;13449;49.374;8.584;2022-12-29T04:15:51;2.80;;;0.85;;
24485;SDS011;13449;49.374;8.584;2022-12-29T04:18:20;1.45;;;0.73;;
24485;SDS011;13449;49.374;8.584;2022-12-29T04:20:48;1.15;;;0.50;;
24485;SDS011;13449;49.374;8.584;2022-12-29T04:23:26;1.95;;;1.05;;
24485;SDS011;13449;49.374;8.584;2022-12-29T04:25:53;1.30;;;0.60;;
24485;SDS011;13449;49.374;8.584;2022-12-29T04:28:20;0.60;;;0.50;;
24485;SDS011;13449;49.374;8.584;2022-12-29T04:30:46;2.42;;;0.50;;
24485;SDS011;13449;49.374;8.584;2022-12-29T04:33:13;5.93;;;0.73;;
24485;SDS011;13449;49.374;8.584;2022-12-29T04:35:41;2.13;;;0.90;;
24485;SDS011;13449;49.374;8.584;2022-12-29T04:38:08;8.07;;;0.77;;
24485;SDS011;13449;49.374;8.584;2022-12-29T04:40:39;2.22;;;0.70;;
24485;SDS011;13449;49.374;8.584;2022-12-29T04:43:06;0.68;;;0.52;;
24485;SDS011;13449;49.374;8.584;2022-12-29T04:45:34;3.83;;;0.50;;
24485;SDS011;13449;49.374;8.584;2022-12-29T04:48:00;0.93;;;0.63;;
24485;SDS011;13449;49.374;8.584;2022-12-29T04:50:26;1.75;;;0.55;;
24485;SDS011;13449;49.374;8.584;2022-12-29T04:52:55;0.65;;;0.40;;
24485;SDS011;13449;49.374;8.584;2022-12-29T04:55:22;1.15;;;0.32;;
24485;SDS011;13449;49.374;8.584;2022-12-29T04:57:51;1.35;;;0.65;;
24485;SDS011;13449;49.374;8.584;2022-12-29T05:00:17;2.55;;;0.40;;
24485;SDS011;13449;49.374;8.584;2022-12-29T05:02:44;0.93;;;0.70;;
24485;SDS011;13449;49.374;8.584;2022-12-29T05:05:11;4.40;;;0.63;;
24485;SDS011;13449;49.374;8.584;2022-12-29T05:07:37;0.65;;;0.65;;
24485;SDS011;13449;49.374;8.584;2022-12-29T05:10:05;0.65;;;0.63;;
24485;SDS011;13449;49.374;8.584;2022-12-29T05:12:33;0.43;;;0.43;;
24485;SDS011;13449;49.374;8.584;2022-12-29T05:15:01;0.98;;;0.55;;
24485;SDS011;13449;49.374;8.584;2022-12-29T05:17:31;4.50;;;0.88;;
24485;SDS011;13449;49.374;8.584;2022-12-29T05:19:57;2.85;;;0.80;;
24485;SDS011;13449;49.374;8.584;2022-12-29T05:22:24;1.77;;;0.77;;
24485;SDS011;13449;49.374;8.584;2022-12-29T05:24:50;2.13;;;0.80;;
24485;SDS011;13449;49.374;8.584;2022-12-29T05:27:18;1.95;;;0.80;;
24485;SDS011;13449;49.374;8.584;2022-12-29T05:29:44;0.38;;;0.38;;
24485;SDS011;13449;49.374;8.584;2022-12-29T05:32:11;3.65;;;0.75;;
24485;SDS011;13449;49.374;8.584;2022-12-29T05:34:37;3.53;;;0.77;;
24485;SDS011;13449;49.374;8.584;2022-12-29T05:37:03;1.20;;;0.63;;
24485;SDS011;13449;49.374;8.584;2022-12-29T05:39:30;2.03;;;0.57;;
24485;SDS011;13449;49.374;8.584;2022-12-29T05:41:56;1.15;;;0.60;;
24485;SDS011;13449;49.374;8.584;2022-12-29T05:44:23;0.80;;;0.50;;
24485;SDS011;13449;49.374;8.584;2022-12-29T05:46:50;0.60;;;0.40;;
24485;SDS011;13449;49.374;8.584;2022-12-29T05:49:16;1.73;;;0.77;;
24485;SDS011;13449;49.374;8.584;2022-12-29T05:51:43;1.10;;;0.75;;
24485;SDS011;13449;49.374;8.584;2022-12-29T05:54:12;1.13;;;0.73;;
24485;SDS011;13449;49.374;8.584;2022-12-29T05:56:41;2.22;;;0.85;;
24485;SDS011;13449;49.374;8.584;2022-12-29T05:59:08;0.60;;;0.50;;
24485;SDS011;13449;49.374;8.584;2022-12-29T06:01:37;0.88;;;0.57;;
24485;SDS011;13449;49.374;8.584;2022-12-29T06:04:03;0.63;;;0.40;;
24485;SDS011;13449;49.374;8.584;2022-12-29T06:06:32;6.47;;;1.20;;
24485;SDS011;13449;49.374;8.584;2022-12-29T06:09:01;0.88;;;0.60;;
24485;SDS011;13449;49.374;8.584;2022-12-29T06:11:28;2.90;;;0.80;;
24485;SDS011;13449;49.374;8.584;2022-12-29T06:13:54;1.05;;;0.80;;
24485;SDS011;13449;49.374;8.584;2022-12-29T06:16:22;1.77;;;0.80;;
24485;SDS011;13449;49.374;8.584;2022-12-29T06:18:48;4.82;;;0.57;;
24485;SDS011;13449;49.374;8.584;2022-12-29T06:21:15;1.30;;;0.63;;
24485;SDS011;13449;49.374;8.584;2022-12-29T06:23:42;1.13;;;0.68;;
24485;SDS011;13449;49.374;8.584;2022-12-29T06:26:11;2.38;;;0.73;;
24485;SDS011;13449;49.374;8.584;2022-12-29T06:28:37;6.55;;;0.95;;
24485;SDS011;13449;49.374;8.584;2022-12-29T06:31:04;1.90;;;0.70;;
24485;SDS011;13449;49.374;8.584;2022-12-29T06:33:31;2.13;;;0.70;;
24485;SDS011;13449;49.374;8.584;2022-12-29T06:36:01;6.18;;;1.42;;
24485;SDS011;13449;49.374;8.584;2022-12-29T06:38:28;5.10;;;1.13;;
24485;SDS011;13449;49.374;8.584;2022-12-29T06:40:54;1.83;;;0.60;;
24485;SDS011;13449;49.374;8.584;2022-12-29T06:43:21;2.90;;;0.80;;
24485;SDS011;13449;49.374;8.584;2022-12-29T06:45:47;1.15;;;0.85;;
24485;SDS011;13449;49.374;8.584;2022-12-29T06:48:14;3.22;;;1.10;;
24485;SDS011;13449;49.374;8.584;2022-12-29T06:50:43;3.92;;;0.65;;
24485;SDS011;13449;49.374;8.584;2022-12-29T06:53:09;4.13;;;0.70;;
24485;SDS011;13449;49.374;8.584;2022-12-29T06:55:36;2.30;;;0.90;;
24485;SDS011;13449;49.374;8.584;2022-12-29T06:58:03;1.42;;;0.70;;
24485;SDS011;13449;49.374;8.584;2022-12-29T07:00:29;2.22;;;0.80;;
24485;SDS011;13449;49.374;8.584;2022-12-29T07:02:56;0.70;;;0.70;;
24485;SDS011;13449;49.374;8.584;2022-12-29T07:05:26;1.75;;;0.70;;
24485;SDS011;13449;49.374;8.584;2022-12-29T07:07:59;11.02;;;1.10;;
24485;SDS011;13449;49.374;8.584;2022-12-29T07:10:26;6.38;;;0.90;;
24485;SDS011;13449;49.374;8.584;2022-12-29T07:12:52;1.30;;;1.00;;
24485;SDS011;13449;49.374;8.584;2022-12-29T07:15:19;3.63;;;0.77;;
24485;SDS011;13449;49.374;8.584;2022-12-29T07:17:45;6.20;;;0.75;;
24485;SDS011;13449;49.374;8.584;2022-12-29T07:20:12;1.92;;;1.00;;
24485;SDS011;13449;49.374;8.584;2022-12-29T07:22:38;0.68;;;0.68;;
24485;SDS011;13449;49.374;8.584;2022-12-29T07:25:05;2.90;;;0.90;;
24485;SDS011;13449;49.374;8.584;2022-12-29T07:27:32;1.35;;;0.90;;
24485;SDS011;13449;49.374;8.584;2022-12-29T07:29:58;1.88;;;1.00;;
24485;SDS011;13449;49.374;8.584;2022-12-29T07:32:25;1.65;;;0.73;;
24485;SDS011;13449;49.374;8.584;2022-12-29T07:34:53;0.88;;;0.77;;
24485;SDS011;13449;49.374;8.584;2022-12-29T07:37:22;1.63;;;0.90;;
24485;SDS011;13449;49.374;8.584;2022-12-29T07:39:48;4.18;;;0.90;;
24485;SDS011;13449;49.374;8.584;2022-12-29T07:42:14;1.73;;;0.88;;
24485;SDS011;13449;49.374;8.584;2022-12-29T07:44:43;5.10;;;1.00;;
24485;SDS011;13449;49.374;8.584;2022-12-29T07:47:10;1.58;;;1.00;;
24485;SDS011;13449;49.374;8.584;2022-12-29T07:49:36;0.90;;;0.82;;
24485;SDS011;13449;49.374;8.584;2022-12-29T07:52:03;1.80;;;1.08;;
24485;SDS011;13449;49.374;8.584;2022-12-29T07:54:29;5.07;;;1.02;;
24485;SDS011;13449;49.374;8.584;2022-12-29T07:56:56;2.55;;;1.23;;
24485;SDS011;13449;49.374;8.584;2022-12-29T07:59:23;2.50;;;1.02;;
24485;SDS011;13449;49.374;8.584;2022-12-29T08:01:50;2.65;;;1.30;;
24485;SDS011;13449;49.374;8.584;2022-12-29T08:04:17;1.52;;;1.00;;
24485;SDS011;13449;49.374;8.584;2022-12-29T08:06:45;1.95;;;1.10;;
24485;SDS011;13449;49.374;8.584;2022-12-29T08:09:11;2.78;;;0.80;;
24485;SDS011;13449;49.374;8.584;2022-12-29T08:11:47;1.95;;;0.93;;
24485;SDS011;13449;49.374;8.584;2022-12-29T08:14:13;3.05;;;1.08;;
24485;SDS011;13449;49.374;8.584;2022-12-29T08:16:40;3.45;;;1.33;;
24485;SDS011;13449;49.374;8.584;2022-12-29T08:19:06;2.60;;;1.15;;
24485;SDS011;13449;49.374;8.584;2022-12-29T08:21:33;2.58;;;1.20;;
24485;SDS011;13449;49.374;8.584;2022-12-29T08:24:00;2.05;;;1.00;;
24485;SDS011;13449;49.374;8.584;2022-12-29T08:26:26;2.08;;;1.27;;
24485;SDS011;13449;49.374;8.584;2022-12-29T08:28:54;2.42;;;1.38;;
24485;SDS011;13449;49.374;8.584;2022-12-29T08:31:23;4.00;;;1.10;;
24485;SDS011;13449;49.374;8.584;2022-12-29T08:33:50;5.93;;;1.52;;
24485;SDS011;13449;49.374;8.584;2022-12-29T08:36:19;4.82;;;1.20;;
24485;SDS011;13449;49.374;8.584;2022-12-29T08:38:45;2.38;;;1.35;;
24485;SDS011;13449;49.374;8.584;2022-12-29T08:41:12;5.88;;;1.30;;
24485;SDS011;13449;49.374;8.584;2022-12-29T08:43:39;3.10;;;1.05;;
24485;SDS011;13449;49.374;8.584;2022-12-29T08:46:05;9.10;;;1.58;;
24485;SDS011;13449;49.374;8.584;2022-12-29T08:48:32;1.13;;;0.95;;
24485;SDS011;13449;49.374;8.584;2022-12-29T08:50:58;3.33;;;1.08;;
24485;SDS011;13449;49.374;8.584;2022-12-29T08:53:24;4.88;;;1.10;;
24485;SDS011;13449;49.374;8.584;2022-12-29T08:55:55;5.68;;;1.65;;
24485;SDS011;13449;49.374;8.584;2022-12-29T08:58:30;6.20;;;1.00;;
24485;SDS011;13449;49.374;8.584;2022-12-29T09:00:57;6.55;;;1.30;;
24485;SDS011;13449;49.374;8.584;2022-12-29T09:03:24;3.22;;;1.05;;
24485;SDS011;13449;49.374;8.584;2022-12-29T09:06:11;2.00;;;1.05;;
24485;SDS011;13449;49.374;8.584;2022-12-29T09:08:38;2.92;;;1.20;;
24485;SDS011;13449;49.374;8.584;2022-12-29T09:11:05;2.25;;;1.10;;
24485;SDS011;13449;49.374;8.584;2022-12-29T09:13:34;2.85;;;1.33;;
24485;SDS011;13449;49.374;8.584;2022-12-29T09:16:01;4.07;;;1.30;;
24485;SDS011;13449;49.374;8.584;2022-12-29T09:18:33;3.85;;;1.38;;
24485;SDS011;13449;49.374;8.584;2022-12-29T09:21:00;2.38;;;0.93;;
24485;SDS011;13449;49.374;8.584;2022-12-29T09:23:28;3.20;;;1.05;;
24485;SDS011;13449;49.374;8.584;2022-12-29T09:25:55;3.22;;;0.80;;
24485;SDS011;13449;49.374;8.584;2022-12-29T09:28:22;2.03;;;1.05;;
24485;SDS011;13449;49.374;8.584;2022-12-29T09:30:51;2.35;;;0.95;;
24485;SDS011;13449;49.374;8.584;2022-12-29T09:33:17;0.95;;;0.80;;
24485;SDS011;13449;49.374;8.584;2022-12-29T09:35:45;7.45;;;1.58;;
24485;SDS011;13449;49.374;8.584;2022-12-29T09:38:19;1.58;;;1.10;;
24485;SDS011;13449;49.374;8.584;2022-12-29T09:40:49;1.40;;;1.08;;
24485;SDS011;13449;49.374;8.584;2022-12-29T09:51:45;1.67;;;0.80;;
24485;SDS011;13449;49.374;8.584;2022-12-29T09:54:20;5.13;;;1.08;;
24485;SDS011;13449;49.374;8.584;2022-12-29T09:56:52;1.13;;;0.90;;
24485;SDS011;13449;49.374;8.584;2022-12-29T09:59:38;1.30;;;0.77;;
24485;SDS011;13449;49.374;8.584;2022-12-29T10:05:38;2.67;;;0.98;;
24485;SDS011;13449;49.374;8.584;2022-12-29T10:14:10;1.55;;;1.30;;
24485;SDS011;13449;49.374;8.584;2022-12-29T10:19:51;2.17;;;1.45;;
24485;SDS011;13449;49.374;8.584;2022-12-29T10:25:19;1.70;;;1.35;;
24485;SDS011;13449;49.374;8.584;2022-12-29T10:27:51;4.05;;;1.08;;
24485;SDS011;13449;49.374;8.584;2022-12-29T10:30:23;2.83;;;1.05;;
24485;SDS011;13449;49.374;8.584;2022-12-29T10:32:51;4.65;;;1.38;;
24485;SDS011;13449;49.374;8.584;2022-12-29T10:35:29;2.55;;;1.58;;
24485;SDS011;13449;49.374;8.584;2022-12-29T10:43:04;2.45;;;1.13;;
24485;SDS011;13449;49.374;8.584;2022-12-29T10:45:46;6.30;;;1.52;;
24485;SDS011;13449;49.374;8.584;2022-12-29T10:48:18;3.85;;;1.27;;
24485;SDS011;13449;49.374;8.584;2022-12-29T10:50:57;2.90;;;1.33;;
24485;SDS011;13449;49.374;8.584;2022-12-29T10:53:30;9.95;;;1.25;;
24485;SDS011;13449;49.374;8.584;2022-12-29T10:56:05;1.50;;;1.05;;
24485;SDS011;13449;49.374;8.584;2022-12-29T10:58:41;5.68;;;0.95;;
24485;SDS011;13449;49.374;8.584;2022-12-29T11:01:15;1.45;;;0.80;;
24485;SDS011;13449;49.374;8.584;2022-12-29T11:03:46;7.35;;;1.02;;
24485;SDS011;13449;49.374;8.584;2022-12-29T11:06:28;3.60;;;1.17;;
24485;SDS011;13449;49.374;8.584;2022-12-29T11:08:59;3.15;;;0.98;;
24485;SDS011;13449;49.374;8.584;2022-12-29T11:11:36;4.13;;;0.90;;
24485;SDS011;13449;49.374;8.584;2022-12-29T11:14:10;5.38;;;0.98;;
24485;SDS011;13449;49.374;8.584;2022-12-29T11:16:40;1.75;;;1.00;;
24485;SDS011;13449;49.374;8.584;2022-12-29T11:19:20;3.15;;;1.23;;
24485;SDS011;13449;49.374;8.584;2022-12-29T11:21:49;2.03;;;1.17;;
24485;SDS011;13449;49.374;8.584;2022-12-29T11:26:51;3.30;;;1.83;;
24485;SDS011;13449;49.374;8.584;2022-12-29T11:29:24;2.55;;;1.15;;
24485;SDS011;13449;49.374;8.584;2022-12-29T11:31:52;2.65;;;1.40;;
24485;SDS011;13449;49.374;8.584;2022-12-29T11:34:25;2.75;;;1.42;;
24485;SDS011;13449;49.374;8.584;2022-12-29T11:37:05;4.65;;;2.75;;
24485;SDS011;13449;49.374;8.584;2022-12-29T11:42:20;3.78;;;1.10;;
24485;SDS011;13449;49.374;8.584;2022-12-29T11:44:52;3.45;;;1.35;;
24485;SDS011;13449;49.374;8.584;2022-12-29T11:47:23;2.17;;;0.75;;
24485;SDS011;13449;49.374;8.584;2022-12-29T11:49:51;2.13;;;0.85;;
24485;SDS011;13449;49.374;8.584;2022-12-29T11:54:51;4.00;;;0.85;;
24485;SDS011;13449;49.374;8.584;2022-12-29T11:57:20;0.50;;;0.50;;
24485;SDS011;13449;49.374;8.584;2022-12-29T11:59:50;2.35;;;0.90;;
24485;SDS011;13449;49.374;8.584;2022-12-29T12:05:33;2.15;;;0.68;;
24485;SDS011;13449;49.374;8.584;2022-12-29T12:08:05;1.58;;;0.50;;
24485;SDS011;13449;49.374;8.584;2022-12-29T12:10:44;2.20;;;0.60;;
24485;SDS011;13449;49.374;8.584;2022-12-29T12:13:33;1.73;;;0.60;;
24485;SDS011;13449;49.374;8.584;2022-12-29T12:16:14;1.30;;;0.60;;
24485;SDS011;13449;49.374;8.584;2022-12-29T12:21:34;4.38;;;1.00;;
24485;SDS011;13449;49.374;8.584;2022-12-29T12:24:31;1.70;;;0.80;;
24485;SDS011;13449;49.374;8.584;2022-12-29T12:27:23;1.40;;;0.80;;
24485;SDS011;13449;49.374;8.584;2022-12-29T12:30:14;0.82;;;0.80;;
24485;SDS011;13449;49.374;8.584;2022-12-29T12:32:54;2.78;;;1.25;;
24485;SDS011;13449;49.374;8.584;2022-12-29T12:39:07;1.77;;;0.65;;
24485;SDS011;13449;49.374;8.584;2022-12-29T12:41:58;0.90;;;0.80;;
24485;SDS011;13449;49.374;8.584;2022-12-29T12:44:39;3.53;;;1.20;;
24485;SDS011;13449;49.374;8.584;2022-12-29T12:55:51;3.03;;;1.90;;
24485;SDS011;13449;49.374;8.584;2022-12-29T12:58:30;2.80;;;1.92;;
24485;SDS011;13449;49.374;8.584;2022-12-29T13:07:35;6.63;;;2.20;;
24485;SDS011;13449;49.374;8.584;2022-12-29T13:18:55;4.93;;;1.10;;
24485;SDS011;13449;49.374;8.584;2022-12-29T13:20:58;3.80;;;1.23;;
24485;SDS011;13449;49.374;8.584;2022-12-29T13:23:34;7.22;;;1.70;;
24485;SDS011;13449;49.374;8.584;2022-12-29T13:31:44;4.97;;;1.23;;
24485;SDS011;13449;49.374;8.584;2022-12-29T13:37:01;3.67;;;1.55;;
24485;SDS011;13449;49.374;8.584;2022-12-29T13:39:34;1.35;;;1.02;;
24485;SDS011;13449;49.374;8.584;2022-12-29T13:42:05;3.38;;;2.05;;
24485;SDS011;13449;49.374;8.584;2022-12-29T13:44:34;3.63;;;1.40;;
24485;SDS011;13449;49.374;8.584;2022-12-29T13:47:11;2.72;;;1.52;;
24485;SDS011;13449;49.374;8.584;2022-12-29T13:49:48;3.08;;;1.90;;
24485;SDS011;13449;49.374;8.584;2022-12-29T13:52:32;4.10;;;2.05;;
24485;SDS011;13449;49.374;8.584;2022-12-29T14:01:24;4.28;;;1.73;;
24485;SDS011;13449;49.374;8.584;2022-12-29T14:03:44;6.70;;;1.73;;
24485;SDS011;13449;49.374;8.584;2022-12-29T14:06:18;6.40;;;2.20;;
24485;SDS011;13449;49.374;8.584;2022-12-29T14:08:46;7.43;;;2.40;;
24485;SDS011;13449;49.374;8.584;2022-12-29T14:11:14;4.28;;;1.23;;
24485;SDS011;13449;49.374;8.584;2022-12-29T14:13:44;3.33;;;2.00;;
24485;SDS011;13449;49.374;8.584;2022-12-29T14:16:26;3.20;;;1.90;;
24485;SDS011;13449;49.374;8.584;2022-12-29T14:18:56;9.73;;;3.13;;
24485;SDS011;13449;49.374;8.584;2022-12-29T14:21:50;2.85;;;2.03;;
24485;SDS011;13449;49.374;8.584;2022-12-29T14:37:33;8.02;;;3.55;;
24485;SDS011;13449;49.374;8.584;2022-12-29T14:42:46;5.00;;;0.68;;
24485;SDS011;13449;49.374;8.584;2022-12-29T14:47:44;4.00;;;1.40;;
24485;SDS011;13449;49.374;8.584;2022-12-29T14:52:45;3.83;;;1.20;;
24485;SDS011;13449;49.374;8.584;2022-12-29T14:57:48;5.85;;;2.53;;
24485;SDS011;13449;49.374;8.584;2022-12-29T15:02:46;1.85;;;1.42;;
24485;SDS011;13449;49.374;8.584;2022-12-29T15:05:32;3.63;;;1.70;;
24485;SDS011;13449;49.374;8.584;2022-12-29T15:07:59;2.20;;;0.90;;
24485;SDS011;13449;49.374;8.584;2022-12-29T15:10:27;6.00;;;1.00;;
24485;SDS011;13449;49.374;8.584;2022-12-29T15:13:14;2.90;;;0.90;;
24485;SDS011;13449;49.374;8.584;2022-12-29T15:15:49;1.95;;;1.08;;
24485;SDS011;13449;49.374;8.584;2022-12-29T15:18:26;4.50;;;1.50;;
24485;SDS011;13449;49.374;8.584;2022-12-29T15:20:59;4.78;;;0.98;;
24485;SDS011;13449;49.374;8.584;2022-12-29T15:23:30;0.95;;;0.63;;
24485;SDS011;13449;49.374;8.584;2022-12-29T15:28:36;3.20;;;1.98;;
24485;SDS011;13449;49.374;8.584;2022-12-29T15:31:10;5.80;;;1.58;;
24485;SDS011;13449;49.374;8.584;2022-12-29T15:33:45;6.43;;;1.70;;
24485;SDS011;13449;49.374;8.584;2022-12-29T15:36:18;5.50;;;1.80;;
24485;SDS011;13449;49.374;8.584;2022-12-29T15:38:47;1.67;;;1.17;;
24485;SDS011;13449;49.374;8.584;2022-12-29T15:43:53;2.20;;;1.30;;
24485;SDS011;13449;49.374;8.584;2022-12-29T15:46:31;1.27;;;1.08;;
24485;SDS011;13449;49.374;8.584;2022-12-29T15:48:58;1.48;;;0.68;;
24485;SDS011;13449;49.374;8.584;2022-12-29T15:51:28;0.98;;;0.68;;
24485;SDS011;13449;49.374;8.584;2022-12-29T15:54:00;2.53;;;0.70;;
24485;SDS011;13449;49.374;8.584;2022-12-29T15:56:31;2.53;;;1.38;;
24485;SDS011;13449;49.374;8.584;2022-12-29T15:58:59;2.15;;;1.45;;
24485;SDS011;13449;49.374;8.584;2022-12-29T16:01:32;1.98;;;1.70;;
24485;SDS011;13449;49.374;8.584;2022-12-29T16:04:01;5.43;;;2.38;;
24485;SDS011;13449;49.374;8.584;2022-12-29T16:06:44;10.88;;;3.90;;
24485;SDS011;13449;49.374;8.584;2022-12-29T16:09:31;6.53;;;3.20;;
24485;SDS011;13449;49.374;8.584;2022-12-29T16:12:04;10.40;;;4.30;;
24485;SDS011;13449;49.374;8.584;2022-12-29T16:14:44;12.30;;;3.83;;
24485;SDS011;13449;49.374;8.584;2022-12-29T16:17:23;10.98;;;4.68;;
24485;SDS011;13449;49.374;8.584;2022-12-29T16:19:54;8.18;;;4.72;;
24485;SDS011;13449;49.374;8.584;2022-12-29T16:22:26;11.02;;;5.70;;
24485;SDS011;13449;49.374;8.584;2022-12-29T16:24:59;16.52;;;5.80;;
24485;SDS011;13449;49.374;8.584;2022-12-29T16:27:37;13.52;;;7.18;;
24485;SDS011;13449;49.374;8.584;2022-12-29T16:30:26;12.63;;;5.50;;
24485;SDS011;13449;49.374;8.584;2022-12-29T16:33:00;15.00;;;5.65;;
24485;SDS011;13449;49.374;8.584;2022-12-29T16:38:14;14.25;;;5.97;;
24485;SDS011;13449;49.374;8.584;2022-12-29T16:40:52;11.68;;;5.93;;
24485;SDS011;13449;49.374;8.584;2022-12-29T16:43:29;18.27;;;8.32;;
24485;SDS011;13449;49.374;8.584;2022-12-29T16:46:15;13.80;;;6.80;;
24485;SDS011;13449;49.374;8.584;2022-12-29T16:48:50;12.32;;;5.80;;
24485;SDS011;13449;49.374;8.584;2022-12-29T16:51:21;8.05;;;4.80;;
24485;SDS011;13449;49.374;8.584;2022-12-29T16:53:56;9.27;;;5.00;;
24485;SDS011;13449;49.374;8.584;2022-12-29T16:56:24;12.90;;;4.68;;
24485;SDS011;13449;49.374;8.584;2022-12-29T16:59:08;12.15;;;4.32;;
24485;SDS011;13449;49.374;8.584;2022-12-29T17:01:48;8.50;;;3.70;;
24485;SDS011;13449;49.374;8.584;2022-12-29T17:04:20;11.63;;;3.30;;
24485;SDS011;13449;49.374;8.584;2022-12-29T17:06:46;5.93;;;2.70;;
24485;SDS011;13449;49.374;8.584;2022-12-29T17:09:24;8.52;;;2.88;;
24485;SDS011;13449;49.374;8.584;2022-12-29T17:11:56;7.32;;;2.92;;
24485;SDS011;13449;49.374;8.584;2022-12-29T17:17:42;7.20;;;3.13;;
24485;SDS011;13449;49.374;8.584;2022-12-29T17:20:17;9.13;;;3.90;;
24485;SDS011;13449;49.374;8.584;2022-12-29T17:22:52;4.88;;;2.70;;
24485;SDS011;13449;49.374;8.584;2022-12-29T17:25:20;6.82;;;3.30;;
24485;SDS011;13449;49.374;8.584;2022-12-29T17:30:38;11.48;;;3.50;;
24485;SDS011;13449;49.374;8.584;2022-12-29T17:33:08;10.85;;;3.95;;
24485;SDS011;13449;49.374;8.584;2022-12-29T17:35:38;4.05;;;2.00;;
24485;SDS011;13449;49.374;8.584;2022-12-29T17:41:13;4.30;;;1.80;;
24485;SDS011;13449;49.374;8.584;2022-12-29T17:43:44;8.63;;;2.60;;
24485;SDS011;13449;49.374;8.584;2022-12-29T17:46:13;10.77;;;2.35;;
24485;SDS011;13449;49.374;8.584;2022-12-29T17:48:40;7.43;;;2.25;;
24485;SDS011;13449;49.374;8.584;2022-12-29T17:51:07;4.43;;;1.50;;